sensor_id;sensor_type;location;lat;lon;timestamp;P1;durP1;ratioP1;P2;durP2;ratioP2
13075;SDS011;6604;52.484;13.330;2023-06-10T07:49:20;11.07;;;7.23;;
13075;SDS011;6604;52.484;13.330;2023-06-10T07:51:47;10.50;;;6.90;;
13075;SDS011;6604;52.484;13.330;2023-06-10T07:54:14;10.13;;;7.57;;
13075;SDS011;6604;52.484;13.330;2023-06-10T07:56:40;9.30;;;6.83;;
13075;SDS011;6604;52.484;13.330;2023-06-10T07:59:07;10.20;;;6.87;;
13075;SDS011;6604;52.484;13.330;2023-06-10T08:01:33;9.83;;;6.50;;
13075;SDS011;6604;52.484;13.330;2023-06-10T08:04:01;12.33;;;7.47;;
13075;SDS011;6604;52.484;13.330;2023-06-10T08:06:29;7.87;;;6.57;;
13075;SDS011;6604;52.484;13.330;2023-06-10T08:08:55;10.20;;;6.50;;
13075;SDS011;6604;52.484;13.330;2023-06-10T08:11:22;10.97;;;6.80;;
13075;SDS011;6604;52.484;13.330;2023-06-10T08:13:50;10.87;;;7.17;;
13075;SDS011;6604;52.484;13.330;2023-06-10T08:16:17;11.73;;;6.97;;
13075;SDS011;6604;52.484;13.330;2023-06-10T08:18:45;12.40;;;7.40;;
13075;SDS011;6604;52.484;13.330;2023-06-10T08:21:11;7.53;;;6.57;;
13075;SDS011;6604;52.484;13.330;2023-06-10T08:23:40;9.53;;;6.37;;
13075;SDS011;6604;52.484;13.330;2023-06-10T08:26:06;9.93;;;7.03;;
13075;SDS011;6604;52.484;13.330;2023-06-10T08:28:33;11.03;;;7.30;;
13075;SDS011;6604;52.484;13.330;2023-06-10T08:31:00;11.47;;;7.57;;
13075;SDS011;6604;52.484;13.330;2023-06-10T08:33:27;13.63;;;8.23;;
13075;SDS011;6604;52.484;13.330;2023-06-10T08:35:53;14.57;;;8.10;;
13075;SDS011;6604;52.484;13.330;2023-06-10T08:38:20;9.20;;;7.60;;
13075;SDS011;6604;52.484;13.330;2023-06-10T08:40:49;11.10;;;7.13;;
13075;SDS011;6604;52.484;13.330;2023-06-10T08:43:17;11.30;;;7.03;;
13075;SDS011;6604;52.484;13.330;2023-06-10T08:45:46;9.70;;;6.80;;
13075;SDS011;6604;52.484;13.330;2023-06-10T08:48:14;10.27;;;8.03;;
13075;SDS011;6604;52.484;13.330;2023-06-10T08:50:42;10.10;;;6.83;;
13075;SDS011;6604;52.484;13.330;2023-06-10T08:53:09;8.87;;;6.47;;
13075;SDS011;6604;52.484;13.330;2023-06-10T08:55:41;10.83;;;7.03;;
13075;SDS011;6604;52.484;13.330;2023-06-10T08:58:09;9.10;;;6.67;;
13075;SDS011;6604;52.484;13.330;2023-06-10T09:00:37;11.30;;;6.70;;
13075;SDS011;6604;52.484;13.330;2023-06-10T09:03:04;7.77;;;6.80;;
13075;SDS011;6604;52.484;13.330;2023-06-10T09:05:33;11.43;;;6.03;;
13075;SDS011;6604;52.484;13.330;2023-06-10T09:08:01;11.13;;;7.50;;
13075;SDS011;6604;52.484;13.330;2023-06-10T09:10:28;8.23;;;6.40;;
13075;SDS011;6604;52.484;13.330;2023-06-10T09:12:58;10.13;;;6.83;;
13075;SDS011;6604;52.484;13.330;2023-06-10T09:15:26;8.83;;;6.60;;
13075;SDS011;6604;52.484;13.330;2023-06-10T09:17:53;9.87;;;7.10;;
13075;SDS011;6604;52.484;13.330;2023-06-10T09:20:19;8.03;;;6.90;;
13075;SDS011;6604;52.484;13.330;2023-06-10T09:22:46;11.27;;;7.33;;
13075;SDS011;6604;52.484;13.330;2023-06-10T09:25:13;10.13;;;6.70;;
13075;SDS011;6604;52.484;13.330;2023-06-10T09:27:43;7.60;;;6.23;;
13075;SDS011;6604;52.484;13.330;2023-06-10T09:30:11;8.37;;;6.73;;
13075;SDS011;6604;52.484;13.330;2023-06-10T09:32:51;10.03;;;6.33;;
13075;SDS011;6604;52.484;13.330;2023-06-10T09:35:17;12.73;;;6.53;;
13075;SDS011;6604;52.484;13.330;2023-06-10T09:37:44;9.50;;;6.33;;
13075;SDS011;6604;52.484;13.330;2023-06-10T09:40:11;9.53;;;6.40;;
13075;SDS011;6604;52.484;13.330;2023-06-10T09:42:38;11.97;;;6.30;;
13075;SDS011;6604;52.484;13.330;2023-06-10T09:45:05;7.60;;;6.30;;
13075;SDS011;6604;52.484;13.330;2023-06-10T09:47:32;8.53;;;6.37;;
13075;SDS011;6604;52.484;13.330;2023-06-10T09:50:01;9.67;;;6.50;;
13075;SDS011;6604;52.484;13.330;2023-06-10T09:52:28;8.03;;;6.13;;
13075;SDS011;6604;52.484;13.330;2023-06-10T09:54:58;7.57;;;6.03;;
13075;SDS011;6604;52.484;13.330;2023-06-10T09:57:25;11.30;;;6.00;;
13075;SDS011;6604;52.484;13.330;2023-06-10T09:59:52;9.10;;;6.07;;
13075;SDS011;6604;52.484;13.330;2023-06-10T10:02:19;9.40;;;6.53;;
13075;SDS011;6604;52.484;13.330;2023-06-10T10:04:46;12.80;;;6.80;;
13075;SDS011;6604;52.484;13.330;2023-06-10T10:07:14;8.60;;;6.13;;
13075;SDS011;6604;52.484;13.330;2023-06-10T10:09:41;12.23;;;6.63;;
13075;SDS011;6604;52.484;13.330;2023-06-10T10:12:08;7.97;;;6.13;;
13075;SDS011;6604;52.484;13.330;2023-06-10T10:14:35;10.33;;;7.17;;
13075;SDS011;6604;52.484;13.330;2023-06-10T10:17:03;10.07;;;6.73;;
13075;SDS011;6604;52.484;13.330;2023-06-10T10:19:31;9.30;;;6.37;;
13075;SDS011;6604;52.484;13.330;2023-06-10T10:22:01;7.30;;;6.13;;
13075;SDS011;6604;52.484;13.330;2023-06-10T10:24:31;11.17;;;6.37;;
13075;SDS011;6604;52.484;13.330;2023-06-10T10:26:59;7.50;;;6.30;;
13075;SDS011;6604;52.484;13.330;2023-06-10T10:29:28;8.67;;;6.13;;
13075;SDS011;6604;52.484;13.330;2023-06-10T10:31:56;12.40;;;6.80;;
13075;SDS011;6604;52.484;13.330;2023-06-10T10:34:24;9.90;;;6.67;;
13075;SDS011;6604;52.484;13.330;2023-06-10T10:36:51;12.30;;;6.17;;
13075;SDS011;6604;52.484;13.330;2023-06-10T10:39:18;7.17;;;6.20;;
13075;SDS011;6604;52.484;13.330;2023-06-10T10:41:46;7.13;;;5.70;;
13075;SDS011;6604;52.484;13.330;2023-06-10T10:44:13;9.13;;;6.33;;
13075;SDS011;6604;52.484;13.330;2023-06-10T10:46:43;6.40;;;5.80;;
13075;SDS011;6604;52.484;13.330;2023-06-10T10:49:10;7.63;;;5.03;;
13075;SDS011;6604;52.484;13.330;2023-06-10T10:51:38;6.37;;;4.67;;
13075;SDS011;6604;52.484;13.330;2023-06-10T10:54:20;4.87;;;4.37;;
13075;SDS011;6604;52.484;13.330;2023-06-10T10:57:11;4.53;;;4.13;;
13075;SDS011;6604;52.484;13.330;2023-06-10T10:59:44;5.37;;;4.20;;
13075;SDS011;6604;52.484;13.330;2023-06-10T11:02:14;6.47;;;4.20;;
13075;SDS011;6604;52.484;13.330;2023-06-10T11:04:44;5.00;;;4.07;;
13075;SDS011;6604;52.484;13.330;2023-06-10T11:07:11;4.93;;;3.73;;
13075;SDS011;6604;52.484;13.330;2023-06-10T11:09:40;6.20;;;4.43;;
13075;SDS011;6604;52.484;13.330;2023-06-10T11:12:24;4.67;;;4.27;;
13075;SDS011;6604;52.484;13.330;2023-06-10T11:14:53;7.53;;;5.00;;
13075;SDS011;6604;52.484;13.330;2023-06-10T11:17:23;4.93;;;4.43;;
13075;SDS011;6604;52.484;13.330;2023-06-10T11:19:49;6.43;;;4.70;;
13075;SDS011;6604;52.484;13.330;2023-06-10T11:22:16;6.80;;;4.33;;
13075;SDS011;6604;52.484;13.330;2023-06-10T11:24:46;5.10;;;4.53;;
13075;SDS011;6604;52.484;13.330;2023-06-10T11:27:17;4.80;;;4.40;;
13075;SDS011;6604;52.484;13.330;2023-06-10T11:32:42;5.90;;;5.30;;
13075;SDS011;6604;52.484;13.330;2023-06-10T11:35:09;5.87;;;4.43;;
13075;SDS011;6604;52.484;13.330;2023-06-10T11:37:35;4.73;;;4.30;;
13075;SDS011;6604;52.484;13.330;2023-06-10T11:40:02;5.37;;;4.87;;
13075;SDS011;6604;52.484;13.330;2023-06-10T11:42:29;5.77;;;5.13;;
13075;SDS011;6604;52.484;13.330;2023-06-10T11:44:56;7.50;;;5.23;;
13075;SDS011;6604;52.484;13.330;2023-06-10T11:47:22;5.50;;;5.00;;
13075;SDS011;6604;52.484;13.330;2023-06-10T11:49:56;6.57;;;5.17;;
13075;SDS011;6604;52.484;13.330;2023-06-10T11:52:26;5.70;;;5.10;;
13075;SDS011;6604;52.484;13.330;2023-06-10T11:54:58;5.70;;;5.17;;
13075;SDS011;6604;52.484;13.330;2023-06-10T11:57:26;5.27;;;4.77;;
13075;SDS011;6604;52.484;13.330;2023-06-10T11:59:52;6.37;;;4.93;;
13075;SDS011;6604;52.484;13.330;2023-06-10T12:02:19;6.13;;;4.80;;
13075;SDS011;6604;52.484;13.330;2023-06-10T12:04:47;5.03;;;4.60;;
13075;SDS011;6604;52.484;13.330;2023-06-10T12:07:18;5.90;;;5.30;;
13075;SDS011;6604;52.484;13.330;2023-06-10T12:09:46;7.10;;;4.67;;
13075;SDS011;6604;52.484;13.330;2023-06-10T12:12:13;5.80;;;5.20;;
13075;SDS011;6604;52.484;13.330;2023-06-10T12:14:55;6.07;;;5.07;;
13075;SDS011;6604;52.484;13.330;2023-06-10T12:17:23;8.80;;;5.77;;
13075;SDS011;6604;52.484;13.330;2023-06-10T12:19:50;9.30;;;5.63;;
13075;SDS011;6604;52.484;13.330;2023-06-10T12:22:18;7.87;;;5.70;;
13075;SDS011;6604;52.484;13.330;2023-06-10T12:24:57;11.43;;;9.83;;
13075;SDS011;6604;52.484;13.330;2023-06-10T12:27:25;7.43;;;6.23;;
13075;SDS011;6604;52.484;13.330;2023-06-10T12:29:55;8.50;;;5.60;;
13075;SDS011;6604;52.484;13.330;2023-06-10T12:32:34;6.13;;;5.57;;
13075;SDS011;6604;52.484;13.330;2023-06-10T12:35:02;5.80;;;5.10;;
13075;SDS011;6604;52.484;13.330;2023-06-10T12:37:30;5.50;;;4.83;;
13075;SDS011;6604;52.484;13.330;2023-06-10T12:39:59;5.87;;;5.20;;
13075;SDS011;6604;52.484;13.330;2023-06-10T12:42:27;7.30;;;6.00;;
13075;SDS011;6604;52.484;13.330;2023-06-10T12:44:55;6.80;;;5.33;;
13075;SDS011;6604;52.484;13.330;2023-06-10T12:47:28;9.00;;;5.83;;
13075;SDS011;6604;52.484;13.330;2023-06-10T12:49:56;6.47;;;5.87;;
13075;SDS011;6604;52.484;13.330;2023-06-10T12:52:23;6.90;;;5.87;;
13075;SDS011;6604;52.484;13.330;2023-06-10T12:55:03;6.57;;;5.87;;
13075;SDS011;6604;52.484;13.330;2023-06-10T12:57:30;7.83;;;6.20;;
13075;SDS011;6604;52.484;13.330;2023-06-10T12:59:57;9.37;;;5.97;;
13075;SDS011;6604;52.484;13.330;2023-06-10T13:02:28;6.57;;;5.80;;
13075;SDS011;6604;52.484;13.330;2023-06-10T13:04:55;6.70;;;6.10;;
13075;SDS011;6604;52.484;13.330;2023-06-10T13:07:22;7.10;;;6.40;;
13075;SDS011;6604;52.484;13.330;2023-06-10T13:09:55;7.50;;;6.57;;
13075;SDS011;6604;52.484;13.330;2023-06-10T13:12:23;7.77;;;7.03;;
13075;SDS011;6604;52.484;13.330;2023-06-10T13:14:52;10.40;;;7.50;;
13075;SDS011;6604;52.484;13.330;2023-06-10T13:17:20;9.10;;;7.33;;
13075;SDS011;6604;52.484;13.330;2023-06-10T13:19:46;10.93;;;7.10;;
13075;SDS011;6604;52.484;13.330;2023-06-10T13:22:14;9.63;;;7.63;;
13075;SDS011;6604;52.484;13.330;2023-06-10T13:24:41;7.87;;;7.00;;
13075;SDS011;6604;52.484;13.330;2023-06-10T13:27:08;8.20;;;7.40;;
13075;SDS011;6604;52.484;13.330;2023-06-10T13:29:36;8.13;;;7.27;;
13075;SDS011;6604;52.484;13.330;2023-06-10T13:32:03;8.77;;;7.80;;
13075;SDS011;6604;52.484;13.330;2023-06-10T13:34:30;8.07;;;7.27;;
13075;SDS011;6604;52.484;13.330;2023-06-10T13:36:56;8.60;;;7.37;;
13075;SDS011;6604;52.484;13.330;2023-06-10T13:39:23;10.40;;;7.47;;
13075;SDS011;6604;52.484;13.330;2023-06-10T13:41:50;9.53;;;7.67;;
13075;SDS011;6604;52.484;13.330;2023-06-10T13:44:17;9.20;;;7.20;;
13075;SDS011;6604;52.484;13.330;2023-06-10T13:46:45;8.30;;;7.07;;
13075;SDS011;6604;52.484;13.330;2023-06-10T13:49:11;8.87;;;7.27;;
13075;SDS011;6604;52.484;13.330;2023-06-10T13:51:38;7.87;;;6.70;;
13075;SDS011;6604;52.484;13.330;2023-06-10T13:54:05;9.20;;;7.33;;
13075;SDS011;6604;52.484;13.330;2023-06-10T13:56:31;8.20;;;6.83;;
13075;SDS011;6604;52.484;13.330;2023-06-10T13:58:59;8.37;;;7.10;;
13075;SDS011;6604;52.484;13.330;2023-06-10T14:01:26;9.27;;;6.97;;
13075;SDS011;6604;52.484;13.330;2023-06-10T14:03:54;9.17;;;6.97;;
13075;SDS011;6604;52.484;13.330;2023-06-10T14:06:21;9.03;;;6.23;;
13075;SDS011;6604;52.484;13.330;2023-06-10T14:08:47;7.87;;;7.10;;
13075;SDS011;6604;52.484;13.330;2023-06-10T14:11:14;8.23;;;6.70;;
13075;SDS011;6604;52.484;13.330;2023-06-10T14:13:41;8.40;;;6.83;;
13075;SDS011;6604;52.484;13.330;2023-06-10T14:16:08;7.67;;;6.90;;
13075;SDS011;6604;52.484;13.330;2023-06-10T14:18:34;7.27;;;6.57;;
13075;SDS011;6604;52.484;13.330;2023-06-10T14:21:03;7.53;;;6.70;;
13075;SDS011;6604;52.484;13.330;2023-06-10T14:23:30;7.67;;;6.27;;
13075;SDS011;6604;52.484;13.330;2023-06-10T14:25:56;8.23;;;6.43;;
13075;SDS011;6604;52.484;13.330;2023-06-10T14:28:24;7.33;;;6.20;;
13075;SDS011;6604;52.484;13.330;2023-06-10T14:30:51;7.27;;;6.03;;
13075;SDS011;6604;52.484;13.330;2023-06-10T14:33:18;7.77;;;6.27;;
13075;SDS011;6604;52.484;13.330;2023-06-10T14:35:44;6.27;;;5.60;;
13075;SDS011;6604;52.484;13.330;2023-06-10T14:38:13;6.83;;;6.10;;
13075;SDS011;6604;52.484;13.330;2023-06-10T14:40:39;7.57;;;5.80;;
13075;SDS011;6604;52.484;13.330;2023-06-10T14:43:06;6.07;;;5.57;;
13075;SDS011;6604;52.484;13.330;2023-06-10T14:45:35;6.90;;;5.93;;
13075;SDS011;6604;52.484;13.330;2023-06-10T14:48:01;6.97;;;5.83;;
13075;SDS011;6604;52.484;13.330;2023-06-10T14:50:28;6.67;;;6.10;;
13075;SDS011;6604;52.484;13.330;2023-06-10T14:52:54;8.07;;;6.73;;
13075;SDS011;6604;52.484;13.330;2023-06-10T14:55:25;6.70;;;6.10;;
13075;SDS011;6604;52.484;13.330;2023-06-10T14:57:52;8.37;;;6.07;;
13075;SDS011;6604;52.484;13.330;2023-06-10T15:00:19;6.97;;;5.67;;
13075;SDS011;6604;52.484;13.330;2023-06-10T15:02:48;5.80;;;5.30;;
13075;SDS011;6604;52.484;13.330;2023-06-10T15:05:15;7.23;;;5.80;;
13075;SDS011;6604;52.484;13.330;2023-06-10T15:07:42;6.13;;;5.63;;
13075;SDS011;6604;52.484;13.330;2023-06-10T15:10:09;8.97;;;5.80;;
13075;SDS011;6604;52.484;13.330;2023-06-10T15:12:37;9.07;;;5.87;;
13075;SDS011;6604;52.484;13.330;2023-06-10T15:15:04;6.23;;;5.60;;
13075;SDS011;6604;52.484;13.330;2023-06-10T15:17:30;7.93;;;5.87;;
13075;SDS011;6604;52.484;13.330;2023-06-10T15:19:57;6.30;;;5.70;;
13075;SDS011;6604;52.484;13.330;2023-06-10T15:22:24;6.80;;;5.27;;
13075;SDS011;6604;52.484;13.330;2023-06-10T15:24:50;5.37;;;4.87;;
13075;SDS011;6604;52.484;13.330;2023-06-10T15:27:17;8.10;;;5.53;;
13075;SDS011;6604;52.484;13.330;2023-06-10T15:29:46;8.23;;;5.10;;
13075;SDS011;6604;52.484;13.330;2023-06-10T15:32:12;9.80;;;5.17;;
13075;SDS011;6604;52.484;13.330;2023-06-10T15:34:39;8.17;;;5.03;;
13075;SDS011;6604;52.484;13.330;2023-06-10T15:37:05;6.37;;;5.77;;
13075;SDS011;6604;52.484;13.330;2023-06-10T15:39:32;9.17;;;5.97;;
13075;SDS011;6604;52.484;13.330;2023-06-10T15:41:58;8.20;;;5.50;;
13075;SDS011;6604;52.484;13.330;2023-06-10T15:44:25;5.83;;;5.00;;
13075;SDS011;6604;52.484;13.330;2023-06-10T15:46:53;6.37;;;5.10;;
13075;SDS011;6604;52.484;13.330;2023-06-10T15:49:20;5.80;;;5.20;;
13075;SDS011;6604;52.484;13.330;2023-06-10T15:51:46;5.30;;;4.80;;
13075;SDS011;6604;52.484;13.330;2023-06-10T15:54:13;11.00;;;5.10;;
13075;SDS011;6604;52.484;13.330;2023-06-10T15:56:40;7.67;;;5.57;;
13075;SDS011;6604;52.484;13.330;2023-06-10T15:59:06;9.30;;;5.17;;
13075;SDS011;6604;52.484;13.330;2023-06-10T16:01:34;5.70;;;4.70;;
13075;SDS011;6604;52.484;13.330;2023-06-10T16:04:02;8.77;;;4.80;;
13075;SDS011;6604;52.484;13.330;2023-06-10T16:06:29;6.40;;;4.70;;
13075;SDS011;6604;52.484;13.330;2023-06-10T16:08:55;6.37;;;4.43;;
13075;SDS011;6604;52.484;13.330;2023-06-10T16:11:22;5.90;;;4.80;;
13075;SDS011;6604;52.484;13.330;2023-06-10T16:13:48;5.00;;;4.50;;
13075;SDS011;6604;52.484;13.330;2023-06-10T16:16:15;6.20;;;4.53;;
13075;SDS011;6604;52.484;13.330;2023-06-10T16:18:42;6.87;;;4.50;;
13075;SDS011;6604;52.484;13.330;2023-06-10T16:21:10;6.70;;;4.10;;
13075;SDS011;6604;52.484;13.330;2023-06-10T16:23:37;4.93;;;4.30;;
13075;SDS011;6604;52.484;13.330;2023-06-10T16:26:04;4.90;;;4.50;;
13075;SDS011;6604;52.484;13.330;2023-06-10T16:28:30;8.73;;;4.90;;
13075;SDS011;6604;52.484;13.330;2023-06-10T16:30:57;6.80;;;4.93;;
13075;SDS011;6604;52.484;13.330;2023-06-10T16:33:23;5.37;;;4.83;;
13075;SDS011;6604;52.484;13.330;2023-06-10T16:35:50;5.70;;;4.90;;
13075;SDS011;6604;52.484;13.330;2023-06-10T16:38:18;5.83;;;5.00;;
13075;SDS011;6604;52.484;13.330;2023-06-10T16:40:45;7.30;;;5.40;;
13075;SDS011;6604;52.484;13.330;2023-06-10T16:43:12;7.73;;;5.20;;
13075;SDS011;6604;52.484;13.330;2023-06-10T16:45:38;6.93;;;5.03;;
13075;SDS011;6604;52.484;13.330;2023-06-10T16:48:05;5.93;;;5.10;;
13075;SDS011;6604;52.484;13.330;2023-06-10T16:50:32;7.33;;;4.83;;
13075;SDS011;6604;52.484;13.330;2023-06-10T16:52:59;5.10;;;4.57;;
13075;SDS011;6604;52.484;13.330;2023-06-10T16:55:27;4.63;;;4.23;;
13075;SDS011;6604;52.484;13.330;2023-06-10T16:57:53;5.80;;;4.40;;
13075;SDS011;6604;52.484;13.330;2023-06-10T17:00:20;4.67;;;4.00;;
13075;SDS011;6604;52.484;13.330;2023-06-10T17:02:47;5.83;;;4.70;;
13075;SDS011;6604;52.484;13.330;2023-06-10T17:05:13;9.70;;;4.63;;
13075;SDS011;6604;52.484;13.330;2023-06-10T17:07:40;5.00;;;4.60;;
13075;SDS011;6604;52.484;13.330;2023-06-10T17:10:06;6.20;;;4.90;;
13075;SDS011;6604;52.484;13.330;2023-06-10T17:12:35;4.67;;;4.27;;
13075;SDS011;6604;52.484;13.330;2023-06-10T17:15:01;4.73;;;4.10;;
13075;SDS011;6604;52.484;13.330;2023-06-10T17:17:28;6.27;;;4.47;;
13075;SDS011;6604;52.484;13.330;2023-06-10T17:19:55;5.20;;;4.23;;
13075;SDS011;6604;52.484;13.330;2023-06-10T17:22:22;9.87;;;4.70;;
13075;SDS011;6604;52.484;13.330;2023-06-10T17:24:48;6.23;;;4.50;;
13075;SDS011;6604;52.484;13.330;2023-06-10T17:27:15;6.47;;;4.23;;
13075;SDS011;6604;52.484;13.330;2023-06-10T17:29:43;5.20;;;4.20;;
13075;SDS011;6604;52.484;13.330;2023-06-10T17:32:09;4.67;;;4.03;;
13075;SDS011;6604;52.484;13.330;2023-06-10T17:34:36;5.97;;;4.30;;
13075;SDS011;6604;52.484;13.330;2023-06-10T17:37:02;4.87;;;4.20;;
13075;SDS011;6604;52.484;13.330;2023-06-10T17:39:29;6.17;;;4.17;;
13075;SDS011;6604;52.484;13.330;2023-06-10T17:41:56;5.47;;;4.07;;
13075;SDS011;6604;52.484;13.330;2023-06-10T17:44:23;5.10;;;4.13;;
13075;SDS011;6604;52.484;13.330;2023-06-10T17:46:51;5.37;;;4.03;;
13075;SDS011;6604;52.484;13.330;2023-06-10T17:49:19;6.40;;;4.13;;
13075;SDS011;6604;52.484;13.330;2023-06-10T17:51:48;5.93;;;4.33;;
13075;SDS011;6604;52.484;13.330;2023-06-10T17:54:14;6.33;;;4.40;;
13075;SDS011;6604;52.484;13.330;2023-06-10T17:56:41;4.10;;;3.70;;
13075;SDS011;6604;52.484;13.330;2023-06-10T17:59:07;6.47;;;4.47;;
13075;SDS011;6604;52.484;13.330;2023-06-10T18:01:34;5.40;;;4.20;;
13075;SDS011;6604;52.484;13.330;2023-06-10T18:04:02;4.90;;;4.30;;
13075;SDS011;6604;52.484;13.330;2023-06-10T18:06:29;4.80;;;4.30;;
13075;SDS011;6604;52.484;13.330;2023-06-10T18:08:56;8.73;;;4.07;;
13075;SDS011;6604;52.484;13.330;2023-06-10T18:11:22;4.40;;;4.00;;
13075;SDS011;6604;52.484;13.330;2023-06-10T18:13:50;5.63;;;3.90;;
13075;SDS011;6604;52.484;13.330;2023-06-10T18:16:17;4.70;;;3.97;;
13075;SDS011;6604;52.484;13.330;2023-06-10T18:18:43;5.03;;;4.57;;
13075;SDS011;6604;52.484;13.330;2023-06-10T18:21:12;4.67;;;4.20;;
13075;SDS011;6604;52.484;13.330;2023-06-10T18:23:39;4.50;;;3.97;;
13075;SDS011;6604;52.484;13.330;2023-06-10T18:26:06;5.27;;;4.33;;
13075;SDS011;6604;52.484;13.330;2023-06-10T18:28:32;8.00;;;4.60;;
13075;SDS011;6604;52.484;13.330;2023-06-10T18:30:59;5.07;;;4.47;;
13075;SDS011;6604;52.484;13.330;2023-06-10T18:33:26;7.57;;;6.00;;
13075;SDS011;6604;52.484;13.330;2023-06-10T18:35:53;5.70;;;4.77;;
13075;SDS011;6604;52.484;13.330;2023-06-10T18:38:21;7.50;;;6.47;;
13075;SDS011;6604;52.484;13.330;2023-06-10T18:40:48;12.70;;;6.40;;
13075;SDS011;6604;52.484;13.330;2023-06-10T18:43:15;5.77;;;5.10;;
13075;SDS011;6604;52.484;13.330;2023-06-10T18:45:43;5.90;;;4.97;;
13075;SDS011;6604;52.484;13.330;2023-06-10T18:48:10;5.37;;;4.80;;
13075;SDS011;6604;52.484;13.330;2023-06-10T18:50:37;6.50;;;4.40;;
13075;SDS011;6604;52.484;13.330;2023-06-10T18:53:03;8.57;;;4.90;;
13075;SDS011;6604;52.484;13.330;2023-06-10T18:55:32;5.53;;;4.80;;
13075;SDS011;6604;52.484;13.330;2023-06-10T18:58:01;5.97;;;4.57;;
13075;SDS011;6604;52.484;13.330;2023-06-10T19:00:27;5.20;;;4.70;;
13075;SDS011;6604;52.484;13.330;2023-06-10T19:02:54;6.80;;;4.90;;
13075;SDS011;6604;52.484;13.330;2023-06-10T19:05:20;5.97;;;4.77;;
13075;SDS011;6604;52.484;13.330;2023-06-10T19:07:47;5.40;;;4.90;;
13075;SDS011;6604;52.484;13.330;2023-06-10T19:10:14;5.50;;;4.77;;
13075;SDS011;6604;52.484;13.330;2023-06-10T19:12:43;5.43;;;4.73;;
13075;SDS011;6604;52.484;13.330;2023-06-10T19:15:10;12.50;;;9.80;;
13075;SDS011;6604;52.484;13.330;2023-06-10T19:17:37;5.20;;;4.70;;
13075;SDS011;6604;52.484;13.330;2023-06-10T19:20:13;4.80;;;4.20;;
13075;SDS011;6604;52.484;13.330;2023-06-10T19:23:09;5.70;;;4.80;;
13075;SDS011;6604;52.484;13.330;2023-06-10T19:25:36;6.03;;;4.33;;
13075;SDS011;6604;52.484;13.330;2023-06-10T19:28:06;5.30;;;4.80;;
13075;SDS011;6604;52.484;13.330;2023-06-10T19:30:33;6.10;;;4.50;;
13075;SDS011;6604;52.484;13.330;2023-06-10T19:32:59;6.70;;;4.60;;
13075;SDS011;6604;52.484;13.330;2023-06-10T19:35:26;9.17;;;4.80;;
13075;SDS011;6604;52.484;13.330;2023-06-10T19:37:53;4.90;;;4.40;;
13075;SDS011;6604;52.484;13.330;2023-06-10T19:40:19;7.57;;;4.83;;
13075;SDS011;6604;52.484;13.330;2023-06-10T19:42:46;6.20;;;4.70;;
13075;SDS011;6604;52.484;13.330;2023-06-10T19:45:14;5.43;;;4.30;;
13075;SDS011;6604;52.484;13.330;2023-06-10T19:47:40;5.03;;;4.37;;
13075;SDS011;6604;52.484;13.330;2023-06-10T19:50:07;7.17;;;4.60;;
13075;SDS011;6604;52.484;13.330;2023-06-10T19:52:34;5.60;;;4.90;;
13075;SDS011;6604;52.484;13.330;2023-06-10T19:55:00;6.70;;;4.47;;
13075;SDS011;6604;52.484;13.330;2023-06-10T19:57:27;8.30;;;4.40;;
13075;SDS011;6604;52.484;13.330;2023-06-10T19:59:54;7.70;;;4.80;;
13075;SDS011;6604;52.484;13.330;2023-06-10T20:02:22;5.23;;;4.60;;
13075;SDS011;6604;52.484;13.330;2023-06-10T20:04:48;12.13;;;6.07;;
13075;SDS011;6604;52.484;13.330;2023-06-10T20:07:15;6.47;;;4.90;;
13075;SDS011;6604;52.484;13.330;2023-06-10T20:09:42;6.20;;;4.20;;
13075;SDS011;6604;52.484;13.330;2023-06-10T20:12:09;5.20;;;4.20;;
13075;SDS011;6604;52.484;13.330;2023-06-10T20:14:35;7.03;;;4.67;;
13075;SDS011;6604;52.484;13.330;2023-06-10T20:17:02;8.67;;;4.23;;
13075;SDS011;6604;52.484;13.330;2023-06-10T20:19:32;6.07;;;4.23;;
13075;SDS011;6604;52.484;13.330;2023-06-10T20:21:59;8.43;;;4.00;;
13075;SDS011;6604;52.484;13.330;2023-06-10T20:24:29;5.67;;;3.90;;
13075;SDS011;6604;52.484;13.330;2023-06-10T20:26:56;5.03;;;4.20;;
13075;SDS011;6604;52.484;13.330;2023-06-10T20:29:23;5.60;;;4.33;;
13075;SDS011;6604;52.484;13.330;2023-06-10T20:31:51;4.80;;;4.00;;
13075;SDS011;6604;52.484;13.330;2023-06-10T20:34:18;6.33;;;4.13;;
13075;SDS011;6604;52.484;13.330;2023-06-10T20:36:46;9.00;;;4.30;;
13075;SDS011;6604;52.484;13.330;2023-06-10T20:39:13;8.67;;;4.37;;
13075;SDS011;6604;52.484;13.330;2023-06-10T20:41:40;6.63;;;3.60;;
13075;SDS011;6604;52.484;13.330;2023-06-10T20:44:06;7.63;;;4.13;;
13075;SDS011;6604;52.484;13.330;2023-06-10T20:46:33;7.57;;;4.27;;
13075;SDS011;6604;52.484;13.330;2023-06-10T20:49:00;6.63;;;4.20;;
13075;SDS011;6604;52.484;13.330;2023-06-10T20:51:26;8.13;;;4.30;;
13075;SDS011;6604;52.484;13.330;2023-06-10T20:53:54;4.60;;;4.03;;
13075;SDS011;6604;52.484;13.330;2023-06-10T20:56:21;10.10;;;4.10;;
13075;SDS011;6604;52.484;13.330;2023-06-10T20:58:48;7.97;;;3.90;;
13075;SDS011;6604;52.484;13.330;2023-06-10T21:01:15;4.10;;;3.60;;
13075;SDS011;6604;52.484;13.330;2023-06-10T21:03:41;6.33;;;4.03;;
13075;SDS011;6604;52.484;13.330;2023-06-10T21:06:08;5.97;;;4.37;;
13075;SDS011;6604;52.484;13.330;2023-06-10T21:08:35;4.57;;;4.13;;
13075;SDS011;6604;52.484;13.330;2023-06-10T21:11:04;6.20;;;4.33;;
13075;SDS011;6604;52.484;13.330;2023-06-10T21:13:33;5.97;;;4.43;;
13075;SDS011;6604;52.484;13.330;2023-06-10T21:16:00;6.53;;;4.60;;
13075;SDS011;6604;52.484;13.330;2023-06-10T21:18:27;6.73;;;4.30;;
13075;SDS011;6604;52.484;13.330;2023-06-10T21:20:56;9.50;;;4.60;;
13075;SDS011;6604;52.484;13.330;2023-06-10T21:23:23;8.33;;;4.53;;
13075;SDS011;6604;52.484;13.330;2023-06-10T21:25:49;4.97;;;3.67;;
13075;SDS011;6604;52.484;13.330;2023-06-10T21:28:19;6.13;;;4.03;;
13075;SDS011;6604;52.484;13.330;2023-06-10T21:31:11;8.37;;;4.23;;
13075;SDS011;6604;52.484;13.330;2023-06-10T21:33:37;5.93;;;4.17;;
13075;SDS011;6604;52.484;13.330;2023-06-10T21:36:04;6.70;;;4.27;;
13075;SDS011;6604;52.484;13.330;2023-06-10T21:38:31;6.80;;;4.00;;
13075;SDS011;6604;52.484;13.330;2023-06-10T21:40:58;6.57;;;4.20;;
13075;SDS011;6604;52.484;13.330;2023-06-10T21:43:26;6.33;;;4.00;;
13075;SDS011;6604;52.484;13.330;2023-06-10T21:45:52;6.57;;;4.00;;
13075;SDS011;6604;52.484;13.330;2023-06-10T21:48:19;5.83;;;4.20;;
13075;SDS011;6604;52.484;13.330;2023-06-10T21:50:46;4.83;;;3.97;;
13075;SDS011;6604;52.484;13.330;2023-06-10T21:53:12;6.93;;;4.20;;
13075;SDS011;6604;52.484;13.330;2023-06-10T21:55:39;6.70;;;4.80;;
13075;SDS011;6604;52.484;13.330;2023-06-10T21:58:05;7.23;;;4.50;;
13075;SDS011;6604;52.484;13.330;2023-06-10T22:00:33;5.60;;;4.30;;
13075;SDS011;6604;52.484;13.330;2023-06-10T22:03:00;5.87;;;4.43;;
13075;SDS011;6604;52.484;13.330;2023-06-10T22:05:26;4.67;;;4.10;;
13075;SDS011;6604;52.484;13.330;2023-06-10T22:07:53;5.13;;;4.30;;
13075;SDS011;6604;52.484;13.330;2023-06-10T22:10:19;5.50;;;4.67;;
13075;SDS011;6604;52.484;13.330;2023-06-10T22:12:47;4.60;;;4.20;;
13075;SDS011;6604;52.484;13.330;2023-06-10T22:15:13;4.77;;;4.27;;
13075;SDS011;6604;52.484;13.330;2023-06-10T22:17:41;5.00;;;4.30;;
13075;SDS011;6604;52.484;13.330;2023-06-10T22:20:08;5.07;;;4.37;;
13075;SDS011;6604;52.484;13.330;2023-06-10T22:22:35;5.27;;;4.07;;
13075;SDS011;6604;52.484;13.330;2023-06-10T22:25:02;7.37;;;4.20;;
13075;SDS011;6604;52.484;13.330;2023-06-10T22:27:28;6.70;;;3.87;;
13075;SDS011;6604;52.484;13.330;2023-06-10T22:29:55;5.83;;;4.07;;
13075;SDS011;6604;52.484;13.330;2023-06-10T22:32:22;6.87;;;4.00;;
13075;SDS011;6604;52.484;13.330;2023-06-10T22:34:50;5.90;;;3.57;;
13075;SDS011;6604;52.484;13.330;2023-06-10T22:37:16;6.83;;;4.00;;
13075;SDS011;6604;52.484;13.330;2023-06-10T22:39:43;6.00;;;4.00;;